createdAt,value
2023-01-20T00:01:46.646Z,3.37
2023-01-20T00:04:15.050Z,3.37
2023-01-20T00:06:42.024Z,3.33
2023-01-20T00:09:16.917Z,3.33
2023-01-20T00:11:44.790Z,3.31
2023-01-20T00:14:11.760Z,3.30
2023-01-20T00:16:39.026Z,3.30
2023-01-20T00:19:06.045Z,3.31
2023-01-20T00:21:35.029Z,3.32
2023-01-20T00:24:02.002Z,3.31
2023-01-20T00:26:28.980Z,3.30
2023-01-20T00:28:58.006Z,3.30
2023-01-20T00:31:31.009Z,3.31
2023-01-20T00:34:00.360Z,3.30
2023-01-20T00:36:34.137Z,3.32
2023-01-20T00:39:03.224Z,3.33
2023-01-20T00:41:30.500Z,3.31
2023-01-20T00:43:57.415Z,3.28
2023-01-20T00:46:24.607Z,3.30
2023-01-20T00:48:51.600Z,3.29
2023-01-20T00:51:18.558Z,3.28
2023-01-20T00:53:45.528Z,3.27
2023-01-20T00:56:12.544Z,3.25
2023-01-20T00:58:39.515Z,3.24
2023-01-20T01:01:06.563Z,3.23
2023-01-20T01:03:33.792Z,3.23
2023-01-20T01:06:12.840Z,3.24
2023-01-20T01:08:40.388Z,3.23
2023-01-20T01:11:07.894Z,3.26
2023-01-20T01:13:36.151Z,3.25
2023-01-20T01:16:03.357Z,3.26
2023-01-20T01:18:30.325Z,3.27
2023-01-20T01:20:57.873Z,3.27
2023-01-20T01:23:24.822Z,3.24
2023-01-20T01:26:07.127Z,3.22
2023-01-20T01:28:34.171Z,3.22
2023-01-20T01:31:06.467Z,3.24
2023-01-20T01:33:33.815Z,3.25
2023-01-20T01:36:03.430Z,3.23
2023-01-20T01:38:30.522Z,3.22
2023-01-20T01:40:57.726Z,3.23
2023-01-20T01:43:37.135Z,3.23
2023-01-20T01:46:05.312Z,3.21
2023-01-20T01:48:45.513Z,3.18
2023-01-20T01:51:24.467Z,3.16
2023-01-20T01:53:57.859Z,3.14
2023-01-20T01:56:26.447Z,3.15
2023-01-20T01:58:59.307Z,3.16
2023-01-20T02:01:27.925Z,3.16
2023-01-20T02:04:02.236Z,3.13
2023-01-20T02:06:34.029Z,3.06
2023-01-20T02:09:03.703Z,3.02
2023-01-20T02:11:37.085Z,2.95
2023-01-20T02:14:04.470Z,2.87
2023-01-20T02:16:57.354Z,2.80
2023-01-20T02:19:35.974Z,2.79
2023-01-20T02:22:30.398Z,2.78
2023-01-20T02:25:29.683Z,2.77
2023-01-20T02:28:09.810Z,2.79
2023-01-20T02:31:04.135Z,2.84
2023-01-20T02:33:44.310Z,2.87
2023-01-20T02:36:27.075Z,2.87
2023-01-20T02:39:08.286Z,2.88
2023-01-20T02:42:04.728Z,2.89
2023-01-20T02:44:41.087Z,2.88
2023-01-20T02:47:36.775Z,2.90
2023-01-20T02:50:42.192Z,2.93
2023-01-20T02:53:12.862Z,2.95
2023-01-20T02:55:46.878Z,2.98
2023-01-20T02:58:40.222Z,2.98
2023-01-20T03:01:34.287Z,2.99
2023-01-20T03:04:04.201Z,2.97
2023-01-20T03:06:38.315Z,2.94
2023-01-20T03:09:12.976Z,2.94
2023-01-20T03:11:47.671Z,2.92
2023-01-20T03:14:15.676Z,2.90
2023-01-20T03:16:43.516Z,2.88
2023-01-20T03:19:11.432Z,2.87
2023-01-20T03:21:38.375Z,2.83
2023-01-20T03:24:06.696Z,2.81
2023-01-20T03:26:34.433Z,2.77
2023-01-20T03:29:11.617Z,2.75
2023-01-20T03:31:47.227Z,2.74
2023-01-20T03:34:20.276Z,2.71
2023-01-20T03:36:48.153Z,2.69
2023-01-20T03:39:15.567Z,2.65
2023-01-20T03:42:00.453Z,2.66
2023-01-20T03:45:10.796Z,2.65
2023-01-20T03:47:56.431Z,2.67
2023-01-20T03:50:38.404Z,2.70
2023-01-20T03:53:11.070Z,2.74
2023-01-20T03:55:56.090Z,2.73
2023-01-20T03:58:32.347Z,2.71
2023-01-20T04:01:14.973Z,2.66
2023-01-20T04:03:49.222Z,2.63
2023-01-20T04:06:18.473Z,2.62
2023-01-20T04:08:56.493Z,2.62
2023-01-20T04:11:23.876Z,2.65
2023-01-20T04:13:51.538Z,2.67
2023-01-20T04:16:20.555Z,2.68
2023-01-20T04:18:50.890Z,2.66
2023-01-20T04:21:47.291Z,2.63
2023-01-20T04:24:21.832Z,2.62
2023-01-20T04:26:48.823Z,2.63
2023-01-20T04:29:15.800Z,2.65
2023-01-20T04:31:42.868Z,2.66
2023-01-20T04:34:15.950Z,2.69
2023-01-20T04:36:43.197Z,2.71
2023-01-20T04:39:10.263Z,2.70
2023-01-20T04:41:37.317Z,2.68
2023-01-20T04:44:04.250Z,2.66
2023-01-20T04:46:31.206Z,2.66
2023-01-20T04:48:58.146Z,2.64
2023-01-20T04:51:25.065Z,2.62
2023-01-20T04:53:56.813Z,2.62
2023-01-20T04:56:24.147Z,2.62
2023-01-20T04:58:51.192Z,2.61
2023-01-20T05:01:18.652Z,2.60
2023-01-20T05:03:45.593Z,2.57
2023-01-20T05:06:13.099Z,2.54
2023-01-20T05:08:40.477Z,2.55
2023-01-20T05:11:07.526Z,2.59
2023-01-20T05:13:38.571Z,2.56
2023-01-20T05:16:07.678Z,2.54
2023-01-20T05:18:35.443Z,2.56
2023-01-20T05:21:05.273Z,2.58
2023-01-20T05:23:32.168Z,2.57
2023-01-20T05:25:59.165Z,2.59
2023-01-20T05:28:26.175Z,2.57
2023-01-20T05:30:53.226Z,2.56
2023-01-20T05:33:20.354Z,2.51
2023-01-20T05:35:47.298Z,2.47
2023-01-20T05:38:14.305Z,2.44
2023-01-20T05:40:41.312Z,2.41
2023-01-20T05:43:08.428Z,2.37
2023-01-20T05:45:35.662Z,2.32
2023-01-20T05:48:03.321Z,2.23
2023-01-20T05:50:30.633Z,2.18
2023-01-20T05:52:57.651Z,2.12
2023-01-20T05:55:24.676Z,2.10
2023-01-20T05:57:51.632Z,2.12
2023-01-20T06:00:19.675Z,2.18
2023-01-20T06:02:46.859Z,2.20
2023-01-20T06:05:14.358Z,2.25
2023-01-20T06:07:41.539Z,2.31
2023-01-20T06:10:09.287Z,2.36
2023-01-20T06:12:36.255Z,2.38
2023-01-20T06:15:03.923Z,2.41
2023-01-20T06:17:30.893Z,2.43
2023-01-20T06:19:58.542Z,2.41
2023-01-20T06:22:26.160Z,2.41
2023-01-20T06:24:53.444Z,2.45
2023-01-20T06:27:20.630Z,2.54
2023-01-20T06:29:47.824Z,2.58
2023-01-20T06:32:14.823Z,2.57
2023-01-20T06:34:41.773Z,2.55
2023-01-20T06:37:08.777Z,2.53
2023-01-20T06:39:35.923Z,2.50
2023-01-20T06:42:02.941Z,2.43
2023-01-20T06:44:29.881Z,2.36
2023-01-20T06:46:58.090Z,2.32
2023-01-20T06:49:26.550Z,2.26
2023-01-20T06:51:56.276Z,2.26
2023-01-20T06:54:23.222Z,2.27
2023-01-20T06:56:50.214Z,2.19
2023-01-20T06:59:17.230Z,2.16
2023-01-20T07:01:44.303Z,2.17
2023-01-20T07:04:14.536Z,2.18
2023-01-20T07:06:42.187Z,2.16
2023-01-20T07:09:12.017Z,2.11
2023-01-20T07:11:39.824Z,2.09
2023-01-20T07:14:07.571Z,2.09
2023-01-20T07:16:35.016Z,2.12
2023-01-20T07:19:02.254Z,2.13
2023-01-20T07:21:29.448Z,2.16
2023-01-20T07:23:59.095Z,2.20
2023-01-20T07:26:26.649Z,2.24
2023-01-20T07:28:53.882Z,2.25
2023-01-20T07:31:26.782Z,2.23
2023-01-20T07:33:57.658Z,2.20
2023-01-20T07:36:25.249Z,2.21
2023-01-20T07:38:53.646Z,2.22
2023-01-20T07:41:22.340Z,2.21
2023-01-20T07:43:51.725Z,2.20
2023-01-20T07:46:19.875Z,2.16
2023-01-20T07:48:46.971Z,2.12
2023-01-20T07:51:15.799Z,2.10
2023-01-20T07:53:47.028Z,2.15
2023-01-20T07:56:21.143Z,2.16
2023-01-20T07:58:50.495Z,2.13
2023-01-20T08:01:20.414Z,2.14
2023-01-20T08:03:48.022Z,2.12
2023-01-20T08:06:19.145Z,2.16
2023-01-20T08:08:46.684Z,2.19
2023-01-20T08:11:15.384Z,2.22
2023-01-20T08:13:43.283Z,2.21
2023-01-20T08:16:13.524Z,2.25
2023-01-20T08:18:40.851Z,2.29
2023-01-20T08:21:26.560Z,2.32
2023-01-20T08:23:56.754Z,2.30
2023-01-20T08:26:27.347Z,2.27
2023-01-20T08:28:55.802Z,2.26
2023-01-20T08:31:24.889Z,2.28
2023-01-20T08:33:57.546Z,2.31
2023-01-20T08:36:29.726Z,2.32
2023-01-20T08:38:59.392Z,2.34
2023-01-20T08:41:36.974Z,2.39
2023-01-20T08:44:07.315Z,2.43
2023-01-20T08:46:34.983Z,2.46
2023-01-20T08:49:02.279Z,2.51
2023-01-20T08:51:32.224Z,2.52
2023-01-20T08:54:00.004Z,2.53
2023-01-20T08:56:28.193Z,2.58
2023-01-20T08:58:59.775Z,2.65
2023-01-20T09:01:30.773Z,2.70
2023-01-20T09:04:05.879Z,2.77
2023-01-20T09:06:40.586Z,2.85
2023-01-20T09:09:08.038Z,2.89
2023-01-20T09:11:35.826Z,2.95
2023-01-20T09:14:03.037Z,2.97
2023-01-20T09:16:30.003Z,3.03
2023-01-20T09:18:56.976Z,3.05
2023-01-20T09:21:24.204Z,3.10
2023-01-20T09:23:51.254Z,3.15
2023-01-20T09:26:34.208Z,3.14
2023-01-20T09:29:11.776Z,3.22
2023-01-20T09:31:44.990Z,3.24
2023-01-20T09:34:19.634Z,3.18
2023-01-20T09:37:19.600Z,3.16
2023-01-20T09:40:05.732Z,3.13
2023-01-20T09:43:09.217Z,3.18
2023-01-20T09:45:48.154Z,3.25
2023-01-20T09:49:01.455Z,3.26
2023-01-20T09:52:41.389Z,3.26
2023-01-20T09:55:22.185Z,3.33
2023-01-20T09:57:59.355Z,3.38
2023-01-20T10:00:31.750Z,3.38
2023-01-20T10:03:18.796Z,3.44
2023-01-20T10:05:50.315Z,3.47
2023-01-20T10:08:34.315Z,3.53
2023-01-20T10:11:12.105Z,3.56
2023-01-20T10:14:24.409Z,3.60
2023-01-20T10:17:16.891Z,3.65
2023-01-20T10:20:28.217Z,3.70
2023-01-20T10:23:40.055Z,3.71
2023-01-20T10:26:16.307Z,3.73
2023-01-20T10:28:56.036Z,3.73
2023-01-20T10:31:28.566Z,3.74
2023-01-20T10:34:03.895Z,3.81
2023-01-20T10:36:32.079Z,3.85
2023-01-20T10:39:21.956Z,3.90
2023-01-20T10:42:03.564Z,4.00
2023-01-20T10:44:35.624Z,4.08
2023-01-20T10:47:29.998Z,4.17
2023-01-20T10:50:10.944Z,4.22
2023-01-20T10:52:46.700Z,4.15
2023-01-20T10:55:46.006Z,4.09
2023-01-20T10:58:28.335Z,4.05
2023-01-20T11:00:56.039Z,4.08
2023-01-20T11:03:24.333Z,4.09
2023-01-20T11:05:52.708Z,4.18
2023-01-20T11:08:29.365Z,4.24
2023-01-20T11:11:21.984Z,4.30
2023-01-20T11:13:51.860Z,4.32
2023-01-20T11:16:31.503Z,4.36
2023-01-20T11:19:04.849Z,4.41
2023-01-20T11:21:37.137Z,4.42
2023-01-20T11:24:36.505Z,4.41
2023-01-20T11:27:12.995Z,4.44
2023-01-20T11:29:46.651Z,4.43
2023-01-20T11:32:35.953Z,4.27
2023-01-20T11:35:25.586Z,4.13
2023-01-20T11:37:52.820Z,4.13
2023-01-20T11:40:26.525Z,4.20
2023-01-20T11:42:54.887Z,4.22
2023-01-20T11:45:32.448Z,4.19
2023-01-20T11:48:25.851Z,4.22
2023-01-20T11:51:01.562Z,4.33
2023-01-20T11:53:31.892Z,4.36
2023-01-20T11:56:03.740Z,4.42
2023-01-20T11:58:50.645Z,4.49
2023-01-20T12:01:27.929Z,4.50
2023-01-20T12:04:10.396Z,4.55
2023-01-20T12:06:51.942Z,4.59
2023-01-20T12:09:25.469Z,4.65
2023-01-20T12:12:05.823Z,4.64
2023-01-20T12:15:02.352Z,4.59
2023-01-20T12:17:41.234Z,4.53
2023-01-20T12:20:35.429Z,4.48
2023-01-20T12:23:58.099Z,4.42
2023-01-20T12:26:28.309Z,4.43
2023-01-20T12:29:18.180Z,4.44
2023-01-20T12:31:49.104Z,4.46
2023-01-20T12:34:27.270Z,4.48
2023-01-20T12:37:00.527Z,4.51
2023-01-20T12:40:05.060Z,4.47
2023-01-20T12:42:56.043Z,4.48
2023-01-20T12:45:41.567Z,4.51
2023-01-20T12:48:50.975Z,4.56
2023-01-20T12:51:50.723Z,4.56
2023-01-20T12:54:49.238Z,4.55
2023-01-20T12:57:31.113Z,4.56
2023-01-20T13:00:26.411Z,4.58
2023-01-20T13:03:00.701Z,4.59
2023-01-20T13:06:07.399Z,4.55
2023-01-20T13:08:45.544Z,4.49
2023-01-20T13:11:55.214Z,4.47
2023-01-20T13:14:46.924Z,4.46
2023-01-20T13:17:29.581Z,4.42
2023-01-20T13:20:05.179Z,4.40
2023-01-20T13:22:32.294Z,4.37
2023-01-20T13:25:05.023Z,4.35
2023-01-20T13:27:37.677Z,4.41
2023-01-20T13:30:07.925Z,4.44
2023-01-20T13:32:37.442Z,4.40
2023-01-20T13:35:23.878Z,4.42
2023-01-20T13:37:56.698Z,4.52
2023-01-20T13:40:38.941Z,4.60
2023-01-20T13:43:25.290Z,4.72
2023-01-20T13:46:07.338Z,4.77
2023-01-20T13:48:36.820Z,4.79
2023-01-20T13:51:15.765Z,4.78
2023-01-20T13:53:46.123Z,4.83
2023-01-20T13:56:38.056Z,4.84
2023-01-20T13:59:08.575Z,4.93
2023-01-20T14:01:37.299Z,5.00
2023-01-20T14:04:21.961Z,4.97
2023-01-20T14:06:52.012Z,4.94
2023-01-20T14:09:26.298Z,4.91
2023-01-20T14:11:56.219Z,4.94
2023-01-20T14:14:26.242Z,4.93
2023-01-20T14:16:53.759Z,4.86
2023-01-20T14:19:35.300Z,4.75
2023-01-20T14:22:24.090Z,4.70
2023-01-20T14:24:54.028Z,4.69
2023-01-20T14:27:29.666Z,4.64
2023-01-20T14:30:19.280Z,4.56
2023-01-20T14:32:46.630Z,4.52
2023-01-20T14:35:31.980Z,4.49
2023-01-20T14:37:59.807Z,4.44
2023-01-20T14:40:33.089Z,4.36
2023-01-20T14:43:22.701Z,4.29
2023-01-20T14:45:51.867Z,4.26
2023-01-20T14:48:33.492Z,4.23
2023-01-20T14:51:04.223Z,4.21
2023-01-20T14:53:31.324Z,4.16
2023-01-20T14:56:04.711Z,4.10
2023-01-20T14:58:31.801Z,4.05
2023-01-20T15:01:03.955Z,4.04
2023-01-20T15:03:31.804Z,4.03
2023-01-20T15:06:05.792Z,4.05
2023-01-20T15:08:32.648Z,4.06
2023-01-20T15:11:18.374Z,4.08
2023-01-20T15:14:08.323Z,4.09
2023-01-20T15:16:44.198Z,4.06
2023-01-20T15:19:16.839Z,4.01
2023-01-20T15:21:53.014Z,3.93
2023-01-20T15:24:23.643Z,3.87
2023-01-20T15:26:53.504Z,3.82
2023-01-20T15:29:32.410Z,3.79
2023-01-20T15:32:03.132Z,3.79
2023-01-20T15:34:30.129Z,3.79
2023-01-20T15:36:57.356Z,3.77
2023-01-20T15:39:30.295Z,3.73
2023-01-20T15:41:58.434Z,3.70
2023-01-20T15:44:26.693Z,3.67
2023-01-20T15:46:57.244Z,3.62
2023-01-20T15:49:25.408Z,3.56
2023-01-20T15:51:52.856Z,3.45
2023-01-20T15:54:19.801Z,3.35
2023-01-20T15:56:46.873Z,3.27
2023-01-20T15:59:16.950Z,3.21
2023-01-20T16:01:49.894Z,3.16
2023-01-20T16:04:18.287Z,3.13
2023-01-20T16:06:45.474Z,3.11
2023-01-20T16:09:37.211Z,3.08
2023-01-20T16:12:04.381Z,3.09
2023-01-20T16:14:31.320Z,3.13
2023-01-20T16:16:58.242Z,3.13
2023-01-20T16:19:25.279Z,3.13
2023-01-20T16:21:52.181Z,3.19
2023-01-20T16:24:19.134Z,3.19
2023-01-20T16:26:47.169Z,3.17
2023-01-20T16:29:14.116Z,3.10
2023-01-20T16:31:41.161Z,3.05
2023-01-20T16:34:08.367Z,2.99
2023-01-20T16:36:35.335Z,2.93
2023-01-20T16:39:02.382Z,2.88
2023-01-20T16:41:30.902Z,2.84
2023-01-20T16:43:58.562Z,2.84
2023-01-20T16:46:29.482Z,2.81
2023-01-20T16:49:01.740Z,2.78
2023-01-20T16:51:31.015Z,2.73
2023-01-20T16:53:59.265Z,2.71
2023-01-20T16:56:30.084Z,2.74
2023-01-20T16:59:02.210Z,2.76
2023-01-20T17:01:30.605Z,2.76
2023-01-20T17:04:02.222Z,2.76
2023-01-20T17:06:33.468Z,2.74
2023-01-20T17:09:04.037Z,2.74
2023-01-20T17:11:36.715Z,2.74
2023-01-20T17:14:07.570Z,2.73
2023-01-20T17:16:35.522Z,2.75
2023-01-20T17:19:03.058Z,2.76
2023-01-20T17:21:33.575Z,2.74
2023-01-20T17:24:03.934Z,2.69
2023-01-20T17:26:31.897Z,2.69
2023-01-20T17:29:02.874Z,2.68
2023-01-20T17:31:33.166Z,2.67
2023-01-20T17:34:00.215Z,2.67
2023-01-20T17:36:27.225Z,2.65
2023-01-20T17:38:54.156Z,2.69
2023-01-20T17:41:21.150Z,2.71
2023-01-20T17:43:48.088Z,2.73
2023-01-20T17:46:30.014Z,2.73
2023-01-20T17:48:58.847Z,2.74
2023-01-20T17:51:28.689Z,2.74
2023-01-20T17:53:58.310Z,2.74
2023-01-20T17:56:25.837Z,2.73
2023-01-20T17:58:53.988Z,2.77
2023-01-20T18:01:28.189Z,2.79
2023-01-20T18:03:58.754Z,2.80
2023-01-20T18:06:27.494Z,2.77
2023-01-20T18:09:01.277Z,2.69
2023-01-20T18:11:32.679Z,2.68
2023-01-20T18:14:00.642Z,2.67
2023-01-20T18:16:37.479Z,2.57
2023-01-20T18:19:04.898Z,2.44
2023-01-20T18:21:37.155Z,2.36
2023-01-20T18:24:07.484Z,2.33
2023-01-20T18:26:38.405Z,2.27
2023-01-20T18:29:10.270Z,2.20
2023-01-20T18:31:37.311Z,2.18
2023-01-20T18:34:07.799Z,2.17
2023-01-20T18:36:38.862Z,2.18
2023-01-20T18:39:21.966Z,2.16
2023-01-20T18:41:50.688Z,2.15
2023-01-20T18:44:19.054Z,2.10
2023-01-20T18:46:46.253Z,2.04
2023-01-20T18:49:15.868Z,2.02
2023-01-20T18:51:43.454Z,2.00
2023-01-20T18:54:20.976Z,2.01
2023-01-20T18:56:48.201Z,1.98
2023-01-20T18:59:15.326Z,1.94
2023-01-20T19:01:43.039Z,1.91
2023-01-20T19:04:12.446Z,1.89
2023-01-20T19:06:42.944Z,1.85
2023-01-20T19:09:11.522Z,1.78
2023-01-20T19:11:41.214Z,1.71
2023-01-20T19:14:12.600Z,1.70
2023-01-20T19:16:45.115Z,1.68
2023-01-20T19:19:13.268Z,1.60
2023-01-20T19:21:40.242Z,1.58
2023-01-20T19:24:08.094Z,1.57
2023-01-20T19:26:38.994Z,1.54
2023-01-20T19:29:08.908Z,1.53
2023-01-20T19:31:39.295Z,1.53
2023-01-20T19:34:08.192Z,1.52
2023-01-20T19:36:35.489Z,1.45
2023-01-20T19:39:03.161Z,1.35
2023-01-20T19:41:34.435Z,1.38
2023-01-20T19:44:04.449Z,1.43
2023-01-20T19:46:34.596Z,1.52
2023-01-20T19:49:02.659Z,1.58
2023-01-20T19:51:31.387Z,1.57
2023-01-20T19:54:01.058Z,1.55
2023-01-20T19:56:31.595Z,1.50
2023-01-20T19:59:00.803Z,1.49
2023-01-20T20:01:36.895Z,1.53
2023-01-20T20:04:09.936Z,1.55
2023-01-20T20:06:40.541Z,1.49
2023-01-20T20:09:14.470Z,1.46
2023-01-20T20:11:42.103Z,1.47
2023-01-20T20:14:13.343Z,1.43
2023-01-20T20:16:40.957Z,1.36
2023-01-20T20:19:11.338Z,1.37
2023-01-20T20:21:38.290Z,1.34
2023-01-20T20:24:05.681Z,1.33
2023-01-20T20:26:37.640Z,1.37
2023-01-20T20:29:07.333Z,1.40
2023-01-20T20:31:37.560Z,1.42
2023-01-20T20:34:12.119Z,1.48
2023-01-20T20:36:39.886Z,1.50
2023-01-20T20:39:07.882Z,1.43
2023-01-20T20:41:36.648Z,1.32
2023-01-20T20:44:04.600Z,1.27
2023-01-20T20:46:32.306Z,1.21
2023-01-20T20:49:01.213Z,1.14
2023-01-20T20:51:31.882Z,1.14
2023-01-20T20:54:02.215Z,1.10
2023-01-20T20:56:31.833Z,1.06
2023-01-20T20:59:03.732Z,1.12
2023-01-20T21:01:33.750Z,1.12
2023-01-20T21:04:03.106Z,1.08
2023-01-20T21:06:30.792Z,1.04
2023-01-20T21:08:58.821Z,1.04
2023-01-20T21:11:26.453Z,1.05
2023-01-20T21:13:53.608Z,1.04
2023-01-20T21:16:22.987Z,0.96
2023-01-20T21:18:52.557Z,0.91
2023-01-20T21:21:20.458Z,0.90
2023-01-20T21:23:53.247Z,0.98
2023-01-20T21:26:20.994Z,1.02
2023-01-20T21:28:49.356Z,1.03
2023-01-20T21:31:21.275Z,1.07
2023-01-20T21:33:54.486Z,1.09
2023-01-20T21:36:22.191Z,1.03
2023-01-20T21:38:49.786Z,0.91
2023-01-20T21:41:18.277Z,0.84
2023-01-20T21:44:05.760Z,0.75
2023-01-20T21:46:39.740Z,0.66
2023-01-20T21:49:29.095Z,0.62
2023-01-20T21:52:15.403Z,0.61
2023-01-20T21:54:44.844Z,0.63
2023-01-20T21:57:11.913Z,0.65
2023-01-20T21:59:39.307Z,0.69
2023-01-20T22:02:07.645Z,0.70
2023-01-20T22:04:34.667Z,0.68
2023-01-20T22:07:02.205Z,0.69
2023-01-20T22:09:29.188Z,0.70
2023-01-20T22:11:56.122Z,0.73
2023-01-20T22:14:23.221Z,0.72
2023-01-20T22:16:50.210Z,0.62
2023-01-20T22:19:17.499Z,0.54
2023-01-20T22:21:44.428Z,0.46
2023-01-20T22:24:11.559Z,0.45
2023-01-20T22:26:38.621Z,0.43
2023-01-20T22:29:05.621Z,0.41
2023-01-20T22:31:34.216Z,0.41
2023-01-20T22:34:04.485Z,0.40
2023-01-20T22:36:31.646Z,0.40
2023-01-20T22:38:58.942Z,0.40
2023-01-20T22:41:26.343Z,0.38
2023-01-20T22:43:53.681Z,0.35
2023-01-20T22:46:24.260Z,0.29
2023-01-20T22:48:51.331Z,0.28
2023-01-20T22:51:36.162Z,0.32
2023-01-20T22:54:03.332Z,0.38
2023-01-20T22:56:32.624Z,0.42
2023-01-20T22:59:00.506Z,0.49
2023-01-20T23:01:32.496Z,0.54
2023-01-20T23:04:03.052Z,0.55
2023-01-20T23:06:33.688Z,0.54
2023-01-20T23:09:03.442Z,0.50
2023-01-20T23:11:31.021Z,0.44
2023-01-20T23:13:58.359Z,0.39
2023-01-20T23:16:25.353Z,0.34
2023-01-20T23:18:52.626Z,0.32
2023-01-20T23:21:21.171Z,0.29
2023-01-20T23:23:54.563Z,0.22
2023-01-20T23:26:26.330Z,0.12
2023-01-20T23:28:55.170Z,0.11
2023-01-20T23:31:24.667Z,0.11
2023-01-20T23:33:53.720Z,0.07
2023-01-20T23:36:24.309Z,0.04
2023-01-20T23:38:54.603Z,0.03
2023-01-20T23:41:21.791Z,0.03
2023-01-20T23:43:48.856Z,0.02
2023-01-20T23:46:15.778Z,0.04
2023-01-20T23:48:45.040Z,-0.02
2023-01-20T23:51:12.000Z,-0.06
2023-01-20T23:53:40.470Z,-0.02
2023-01-20T23:56:13.324Z,-0.02
2023-01-20T23:58:40.591Z,0.00
